sensor_id;sensor_type;location;lat;lon;timestamp;P1;durP1;ratioP1;P2;durP2;ratioP2
71048;SDS011;58704;53.358;-6.238;2024-02-28T00:01:56;20.83;;;4.77;;
71048;SDS011;58704;53.358;-6.238;2024-02-28T00:04:21;19.70;;;5.10;;
71048;SDS011;58704;53.358;-6.238;2024-02-28T00:06:46;22.02;;;4.95;;
71048;SDS011;58704;53.358;-6.238;2024-02-28T00:09:12;24.37;;;5.00;;
71048;SDS011;58704;53.358;-6.238;2024-02-28T00:11:45;22.00;;;5.10;;
71048;SDS011;58704;53.358;-6.238;2024-02-28T00:14:10;26.70;;;5.95;;
71048;SDS011;58704;53.358;-6.238;2024-02-28T00:16:36;15.95;;;4.15;;
71048;SDS011;58704;53.358;-6.238;2024-02-28T00:19:01;29.07;;;4.83;;
71048;SDS011;58704;53.358;-6.238;2024-02-28T00:21:26;22.60;;;4.97;;
71048;SDS011;58704;53.358;-6.238;2024-02-28T00:23:52;26.27;;;4.60;;
71048;SDS011;58704;53.358;-6.238;2024-02-28T00:26:17;27.77;;;4.27;;
71048;SDS011;58704;53.358;-6.238;2024-02-28T00:28:42;28.70;;;4.93;;
71048;SDS011;58704;53.358;-6.238;2024-02-28T00:31:07;24.43;;;4.97;;
71048;SDS011;58704;53.358;-6.238;2024-02-28T00:33:33;17.87;;;4.33;;
71048;SDS011;58704;53.358;-6.238;2024-02-28T00:35:58;26.17;;;5.13;;
71048;SDS011;58704;53.358;-6.238;2024-02-28T00:38:23;29.47;;;4.87;;
71048;SDS011;58704;53.358;-6.238;2024-02-28T00:40:48;25.47;;;4.90;;
71048;SDS011;58704;53.358;-6.238;2024-02-28T00:43:13;23.00;;;4.23;;
71048;SDS011;58704;53.358;-6.238;2024-02-28T00:45:39;30.60;;;3.67;;
71048;SDS011;58704;53.358;-6.238;2024-02-28T00:48:04;30.17;;;5.30;;
71048;SDS011;58704;53.358;-6.238;2024-02-28T00:50:30;21.08;;;4.13;;
71048;SDS011;58704;53.358;-6.238;2024-02-28T00:52:55;30.37;;;4.97;;
71048;SDS011;58704;53.358;-6.238;2024-02-28T00:55:20;27.17;;;4.33;;
71048;SDS011;58704;53.358;-6.238;2024-02-28T00:57:45;24.07;;;4.33;;
71048;SDS011;58704;53.358;-6.238;2024-02-28T01:00:11;26.30;;;5.07;;
71048;SDS011;58704;53.358;-6.238;2024-02-28T01:02:36;21.63;;;3.80;;
71048;SDS011;58704;53.358;-6.238;2024-02-28T01:05:01;17.27;;;4.53;;
71048;SDS011;58704;53.358;-6.238;2024-02-28T01:07:27;23.37;;;5.40;;
71048;SDS011;58704;53.358;-6.238;2024-02-28T01:09:52;16.63;;;4.40;;
71048;SDS011;58704;53.358;-6.238;2024-02-28T01:12:17;29.07;;;4.93;;
71048;SDS011;58704;53.358;-6.238;2024-02-28T01:14:43;24.63;;;5.13;;
71048;SDS011;58704;53.358;-6.238;2024-02-28T01:17:08;25.67;;;4.20;;
71048;SDS011;58704;53.358;-6.238;2024-02-28T01:19:33;32.47;;;4.97;;
71048;SDS011;58704;53.358;-6.238;2024-02-28T01:21:58;23.33;;;3.53;;
71048;SDS011;58704;53.358;-6.238;2024-02-28T01:24:24;25.63;;;3.93;;
71048;SDS011;58704;53.358;-6.238;2024-02-28T01:26:49;19.57;;;4.17;;
71048;SDS011;58704;53.358;-6.238;2024-02-28T01:29:14;19.97;;;4.60;;
71048;SDS011;58704;53.358;-6.238;2024-02-28T01:31:40;18.30;;;3.57;;
71048;SDS011;58704;53.358;-6.238;2024-02-28T01:34:05;23.10;;;3.97;;
71048;SDS011;58704;53.358;-6.238;2024-02-28T01:36:30;29.93;;;4.50;;
71048;SDS011;58704;53.358;-6.238;2024-02-28T01:38:55;21.83;;;3.53;;
71048;SDS011;58704;53.358;-6.238;2024-02-28T01:41:21;31.13;;;3.40;;
71048;SDS011;58704;53.358;-6.238;2024-02-28T01:43:46;21.73;;;3.77;;
71048;SDS011;58704;53.358;-6.238;2024-02-28T01:46:17;18.20;;;3.07;;
71048;SDS011;58704;53.358;-6.238;2024-02-28T01:48:45;22.37;;;3.90;;
71048;SDS011;58704;53.358;-6.238;2024-02-28T01:51:11;16.88;;;3.47;;
71048;SDS011;58704;53.358;-6.238;2024-02-28T01:53:36;24.33;;;4.40;;
71048;SDS011;58704;53.358;-6.238;2024-02-28T01:56:01;19.67;;;2.93;;
71048;SDS011;58704;53.358;-6.238;2024-02-28T01:58:27;21.47;;;3.30;;
71048;SDS011;58704;53.358;-6.238;2024-02-28T02:00:52;26.60;;;3.27;;
71048;SDS011;58704;53.358;-6.238;2024-02-28T02:03:18;20.97;;;2.70;;
71048;SDS011;58704;53.358;-6.238;2024-02-28T02:05:43;21.50;;;2.80;;
71048;SDS011;58704;53.358;-6.238;2024-02-28T02:08:08;23.87;;;3.63;;
71048;SDS011;58704;53.358;-6.238;2024-02-28T02:10:34;22.90;;;2.97;;
71048;SDS011;58704;53.358;-6.238;2024-02-28T02:13:04;18.33;;;3.67;;
71048;SDS011;58704;53.358;-6.238;2024-02-28T02:15:29;21.90;;;3.43;;
71048;SDS011;58704;53.358;-6.238;2024-02-28T02:17:56;23.45;;;3.53;;
71048;SDS011;58704;53.358;-6.238;2024-02-28T02:20:21;25.37;;;4.13;;
71048;SDS011;58704;53.358;-6.238;2024-02-28T02:22:47;20.13;;;3.50;;
71048;SDS011;58704;53.358;-6.238;2024-02-28T02:25:12;26.37;;;3.60;;
71048;SDS011;58704;53.358;-6.238;2024-02-28T02:27:38;25.13;;;4.23;;
71048;SDS011;58704;53.358;-6.238;2024-02-28T02:30:03;28.10;;;3.87;;
71048;SDS011;58704;53.358;-6.238;2024-02-28T02:32:29;15.17;;;3.20;;
71048;SDS011;58704;53.358;-6.238;2024-02-28T02:34:54;22.03;;;4.03;;
71048;SDS011;58704;53.358;-6.238;2024-02-28T02:37:20;30.07;;;4.17;;
71048;SDS011;58704;53.358;-6.238;2024-02-28T02:39:45;20.80;;;3.30;;
71048;SDS011;58704;53.358;-6.238;2024-02-28T02:42:10;11.03;;;2.90;;
71048;SDS011;58704;53.358;-6.238;2024-02-28T02:44:38;13.43;;;3.17;;
71048;SDS011;58704;53.358;-6.238;2024-02-28T02:47:04;17.97;;;3.07;;
71048;SDS011;58704;53.358;-6.238;2024-02-28T02:49:29;23.53;;;4.40;;
71048;SDS011;58704;53.358;-6.238;2024-02-28T02:51:54;23.93;;;3.30;;
71048;SDS011;58704;53.358;-6.238;2024-02-28T02:54:19;28.73;;;3.83;;
71048;SDS011;58704;53.358;-6.238;2024-02-28T02:56:44;19.43;;;3.60;;
71048;SDS011;58704;53.358;-6.238;2024-02-28T02:59:10;19.67;;;3.37;;
71048;SDS011;58704;53.358;-6.238;2024-02-28T03:01:36;16.63;;;3.08;;
71048;SDS011;58704;53.358;-6.238;2024-02-28T03:04:01;17.47;;;2.63;;
71048;SDS011;58704;53.358;-6.238;2024-02-28T03:06:27;25.27;;;3.03;;
71048;SDS011;58704;53.358;-6.238;2024-02-28T03:08:52;25.23;;;3.13;;
71048;SDS011;58704;53.358;-6.238;2024-02-28T03:11:17;18.70;;;3.00;;
71048;SDS011;58704;53.358;-6.238;2024-02-28T03:13:43;22.20;;;3.00;;
71048;SDS011;58704;53.358;-6.238;2024-02-28T03:16:08;23.00;;;2.67;;
71048;SDS011;58704;53.358;-6.238;2024-02-28T03:18:33;16.73;;;2.33;;
71048;SDS011;58704;53.358;-6.238;2024-02-28T03:20:58;15.43;;;2.90;;
71048;SDS011;58704;53.358;-6.238;2024-02-28T03:23:24;14.67;;;2.63;;
71048;SDS011;58704;53.358;-6.238;2024-02-28T03:25:49;20.80;;;3.63;;
71048;SDS011;58704;53.358;-6.238;2024-02-28T03:28:14;17.97;;;3.00;;
71048;SDS011;58704;53.358;-6.238;2024-02-28T03:30:39;19.10;;;3.03;;
71048;SDS011;58704;53.358;-6.238;2024-02-28T03:33:05;19.93;;;3.60;;
71048;SDS011;58704;53.358;-6.238;2024-02-28T03:35:30;16.00;;;2.90;;
71048;SDS011;58704;53.358;-6.238;2024-02-28T03:37:55;15.10;;;2.70;;
71048;SDS011;58704;53.358;-6.238;2024-02-28T03:40:20;24.23;;;3.80;;
71048;SDS011;58704;53.358;-6.238;2024-02-28T03:42:46;17.67;;;2.87;;
71048;SDS011;58704;53.358;-6.238;2024-02-28T03:45:11;19.60;;;3.50;;
71048;SDS011;58704;53.358;-6.238;2024-02-28T03:47:36;16.20;;;2.83;;
71048;SDS011;58704;53.358;-6.238;2024-02-28T03:50:01;17.13;;;3.27;;
71048;SDS011;58704;53.358;-6.238;2024-02-28T03:52:28;16.17;;;3.17;;
71048;SDS011;58704;53.358;-6.238;2024-02-28T03:54:55;20.42;;;3.03;;
71048;SDS011;58704;53.358;-6.238;2024-02-28T03:57:20;19.33;;;2.63;;
71048;SDS011;58704;53.358;-6.238;2024-02-28T03:59:45;17.93;;;3.33;;
71048;SDS011;58704;53.358;-6.238;2024-02-28T04:02:10;16.53;;;2.97;;
71048;SDS011;58704;53.358;-6.238;2024-02-28T04:04:36;17.40;;;2.80;;
71048;SDS011;58704;53.358;-6.238;2024-02-28T04:07:01;20.40;;;3.47;;
71048;SDS011;58704;53.358;-6.238;2024-02-28T04:09:26;20.43;;;2.97;;
71048;SDS011;58704;53.358;-6.238;2024-02-28T04:11:51;18.53;;;3.30;;
71048;SDS011;58704;53.358;-6.238;2024-02-28T04:14:17;25.13;;;3.23;;
71048;SDS011;58704;53.358;-6.238;2024-02-28T04:16:42;13.90;;;3.30;;
71048;SDS011;58704;53.358;-6.238;2024-02-28T04:19:12;12.65;;;2.92;;
71048;SDS011;58704;53.358;-6.238;2024-02-28T04:21:37;27.33;;;3.97;;
71048;SDS011;58704;53.358;-6.238;2024-02-28T04:24:03;23.13;;;2.63;;
71048;SDS011;58704;53.358;-6.238;2024-02-28T04:26:28;22.63;;;3.17;;
71048;SDS011;58704;53.358;-6.238;2024-02-28T04:28:54;27.98;;;3.60;;
71048;SDS011;58704;53.358;-6.238;2024-02-28T04:31:19;18.03;;;2.83;;
71048;SDS011;58704;53.358;-6.238;2024-02-28T04:33:45;15.73;;;2.37;;
71048;SDS011;58704;53.358;-6.238;2024-02-28T04:36:10;13.00;;;2.37;;
71048;SDS011;58704;53.358;-6.238;2024-02-28T04:38:35;21.87;;;4.00;;
71048;SDS011;58704;53.358;-6.238;2024-02-28T04:41:00;20.37;;;3.77;;
71048;SDS011;58704;53.358;-6.238;2024-02-28T04:43:26;20.57;;;3.00;;
71048;SDS011;58704;53.358;-6.238;2024-02-28T04:45:51;17.23;;;3.20;;
71048;SDS011;58704;53.358;-6.238;2024-02-28T04:48:16;25.00;;;3.60;;
71048;SDS011;58704;53.358;-6.238;2024-02-28T04:50:41;22.63;;;3.57;;
71048;SDS011;58704;53.358;-6.238;2024-02-28T04:53:07;22.87;;;3.43;;
71048;SDS011;58704;53.358;-6.238;2024-02-28T04:55:32;20.30;;;4.30;;
71048;SDS011;58704;53.358;-6.238;2024-02-28T04:57:57;20.90;;;3.87;;
71048;SDS011;58704;53.358;-6.238;2024-02-28T05:00:22;22.00;;;3.20;;
71048;SDS011;58704;53.358;-6.238;2024-02-28T05:02:47;19.30;;;2.97;;
71048;SDS011;58704;53.358;-6.238;2024-02-28T05:05:13;18.40;;;4.17;;
71048;SDS011;58704;53.358;-6.238;2024-02-28T05:07:38;17.83;;;3.40;;
71048;SDS011;58704;53.358;-6.238;2024-02-28T05:10:03;17.50;;;3.20;;
71048;SDS011;58704;53.358;-6.238;2024-02-28T05:12:29;19.05;;;2.50;;
71048;SDS011;58704;53.358;-6.238;2024-02-28T05:14:54;27.70;;;4.87;;
71048;SDS011;58704;53.358;-6.238;2024-02-28T05:17:20;20.60;;;3.70;;
71048;SDS011;58704;53.358;-6.238;2024-02-28T05:19:45;19.33;;;3.03;;
71048;SDS011;58704;53.358;-6.238;2024-02-28T05:22:10;20.17;;;3.90;;
71048;SDS011;58704;53.358;-6.238;2024-02-28T05:24:36;16.63;;;2.92;;
71048;SDS011;58704;53.358;-6.238;2024-02-28T05:27:01;24.13;;;3.10;;
71048;SDS011;58704;53.358;-6.238;2024-02-28T05:29:27;14.67;;;3.77;;
71048;SDS011;58704;53.358;-6.238;2024-02-28T05:31:52;29.00;;;3.17;;
71048;SDS011;58704;53.358;-6.238;2024-02-28T05:34:17;26.40;;;3.33;;
71048;SDS011;58704;53.358;-6.238;2024-02-28T05:36:42;16.20;;;2.50;;
71048;SDS011;58704;53.358;-6.238;2024-02-28T05:39:08;20.40;;;2.93;;
71048;SDS011;58704;53.358;-6.238;2024-02-28T05:41:33;20.20;;;2.75;;
71048;SDS011;58704;53.358;-6.238;2024-02-28T05:43:58;20.00;;;2.80;;
71048;SDS011;58704;53.358;-6.238;2024-02-28T05:46:23;22.43;;;3.07;;
71048;SDS011;58704;53.358;-6.238;2024-02-28T05:48:49;25.13;;;3.67;;
71048;SDS011;58704;53.358;-6.238;2024-02-28T05:51:14;21.60;;;2.53;;
71048;SDS011;58704;53.358;-6.238;2024-02-28T05:53:40;26.73;;;4.00;;
71048;SDS011;58704;53.358;-6.238;2024-02-28T05:56:07;20.17;;;3.42;;
71048;SDS011;58704;53.358;-6.238;2024-02-28T05:58:45;19.20;;;3.70;;
71048;SDS011;58704;53.358;-6.238;2024-02-28T06:01:10;24.88;;;2.90;;
71048;SDS011;58704;53.358;-6.238;2024-02-28T06:03:39;21.08;;;2.95;;
71048;SDS011;58704;53.358;-6.238;2024-02-28T06:06:04;27.43;;;4.30;;
71048;SDS011;58704;53.358;-6.238;2024-02-28T06:08:33;21.15;;;3.22;;
71048;SDS011;58704;53.358;-6.238;2024-02-28T06:10:58;26.35;;;4.18;;
71048;SDS011;58704;53.358;-6.238;2024-02-28T06:13:24;25.03;;;3.90;;
71048;SDS011;58704;53.358;-6.238;2024-02-28T06:15:49;20.17;;;2.83;;
71048;SDS011;58704;53.358;-6.238;2024-02-28T06:18:14;22.70;;;3.33;;
71048;SDS011;58704;53.358;-6.238;2024-02-28T06:20:40;24.20;;;3.60;;
71048;SDS011;58704;53.358;-6.238;2024-02-28T06:23:05;18.07;;;3.10;;
71048;SDS011;58704;53.358;-6.238;2024-02-28T06:25:30;22.63;;;3.60;;
71048;SDS011;58704;53.358;-6.238;2024-02-28T06:27:58;25.08;;;3.85;;
71048;SDS011;58704;53.358;-6.238;2024-02-28T06:30:24;17.33;;;2.93;;
71048;SDS011;58704;53.358;-6.238;2024-02-28T06:32:49;25.30;;;4.00;;
71048;SDS011;58704;53.358;-6.238;2024-02-28T06:35:14;22.63;;;3.10;;
71048;SDS011;58704;53.358;-6.238;2024-02-28T06:37:41;20.73;;;3.35;;
71048;SDS011;58704;53.358;-6.238;2024-02-28T06:40:07;22.60;;;3.73;;
71048;SDS011;58704;53.358;-6.238;2024-02-28T06:42:34;27.83;;;3.58;;
71048;SDS011;58704;53.358;-6.238;2024-02-28T06:45:00;20.83;;;3.00;;
71048;SDS011;58704;53.358;-6.238;2024-02-28T06:47:25;20.40;;;3.47;;
71048;SDS011;58704;53.358;-6.238;2024-02-28T06:49:50;27.73;;;4.13;;
71048;SDS011;58704;53.358;-6.238;2024-02-28T06:52:17;25.55;;;3.40;;
71048;SDS011;58704;53.358;-6.238;2024-02-28T06:54:42;26.87;;;4.00;;
71048;SDS011;58704;53.358;-6.238;2024-02-28T06:57:07;25.57;;;3.80;;
71048;SDS011;58704;53.358;-6.238;2024-02-28T06:59:32;20.43;;;3.07;;
71048;SDS011;58704;53.358;-6.238;2024-02-28T07:01:58;32.17;;;4.07;;
71048;SDS011;58704;53.358;-6.238;2024-02-28T07:04:24;21.07;;;2.90;;
71048;SDS011;58704;53.358;-6.238;2024-02-28T07:06:49;23.43;;;4.20;;
71048;SDS011;58704;53.358;-6.238;2024-02-28T07:09:14;20.73;;;3.50;;
71048;SDS011;58704;53.358;-6.238;2024-02-28T07:11:40;23.92;;;4.78;;
71048;SDS011;58704;53.358;-6.238;2024-02-28T07:14:05;20.83;;;3.33;;
71048;SDS011;58704;53.358;-6.238;2024-02-28T07:16:31;23.70;;;3.50;;
71048;SDS011;58704;53.358;-6.238;2024-02-28T07:18:59;19.25;;;3.38;;
71048;SDS011;58704;53.358;-6.238;2024-02-28T07:21:24;17.88;;;2.83;;
71048;SDS011;58704;53.358;-6.238;2024-02-28T07:23:50;24.67;;;2.43;;
71048;SDS011;58704;53.358;-6.238;2024-02-28T07:26:16;13.77;;;2.90;;
71048;SDS011;58704;53.358;-6.238;2024-02-28T07:28:41;17.23;;;2.20;;
71048;SDS011;58704;53.358;-6.238;2024-02-28T07:31:06;14.93;;;2.70;;
71048;SDS011;58704;53.358;-6.238;2024-02-28T07:33:32;11.27;;;2.20;;
71048;SDS011;58704;53.358;-6.238;2024-02-28T07:35:57;7.37;;;1.80;;
71048;SDS011;58704;53.358;-6.238;2024-02-28T07:38:26;13.15;;;2.10;;
71048;SDS011;58704;53.358;-6.238;2024-02-28T07:40:52;11.73;;;2.58;;
71048;SDS011;58704;53.358;-6.238;2024-02-28T07:43:17;9.17;;;1.87;;
71048;SDS011;58704;53.358;-6.238;2024-02-28T07:45:43;11.73;;;1.77;;
71048;SDS011;58704;53.358;-6.238;2024-02-28T07:48:08;7.40;;;1.63;;
71048;SDS011;58704;53.358;-6.238;2024-02-28T07:50:33;10.47;;;2.00;;
71048;SDS011;58704;53.358;-6.238;2024-02-28T07:52:58;10.60;;;1.93;;
71048;SDS011;58704;53.358;-6.238;2024-02-28T07:55:24;9.17;;;1.77;;
71048;SDS011;58704;53.358;-6.238;2024-02-28T07:57:53;11.87;;;1.63;;
71048;SDS011;58704;53.358;-6.238;2024-02-28T08:00:18;4.30;;;1.33;;
71048;SDS011;58704;53.358;-6.238;2024-02-28T08:02:44;3.97;;;1.10;;
71048;SDS011;58704;53.358;-6.238;2024-02-28T08:05:10;7.33;;;1.80;;
71048;SDS011;58704;53.358;-6.238;2024-02-28T08:07:35;7.57;;;1.17;;
71048;SDS011;58704;53.358;-6.238;2024-02-28T08:10:01;12.30;;;3.53;;
71048;SDS011;58704;53.358;-6.238;2024-02-28T08:12:27;5.57;;;1.10;;
71048;SDS011;58704;53.358;-6.238;2024-02-28T08:14:52;5.27;;;1.20;;
71048;SDS011;58704;53.358;-6.238;2024-02-28T08:17:17;2.63;;;1.07;;
71048;SDS011;58704;53.358;-6.238;2024-02-28T08:19:42;6.80;;;1.07;;
71048;SDS011;58704;53.358;-6.238;2024-02-28T08:22:08;2.67;;;0.70;;
71048;SDS011;58704;53.358;-6.238;2024-02-28T08:24:34;4.57;;;1.20;;
71048;SDS011;58704;53.358;-6.238;2024-02-28T08:26:59;4.20;;;1.20;;
71048;SDS011;58704;53.358;-6.238;2024-02-28T08:29:25;3.43;;;1.00;;
71048;SDS011;58704;53.358;-6.238;2024-02-28T08:31:50;3.27;;;0.83;;
71048;SDS011;58704;53.358;-6.238;2024-02-28T08:34:15;5.23;;;0.87;;
71048;SDS011;58704;53.358;-6.238;2024-02-28T08:36:41;4.10;;;1.00;;
71048;SDS011;58704;53.358;-6.238;2024-02-28T08:39:06;2.20;;;0.77;;
71048;SDS011;58704;53.358;-6.238;2024-02-28T08:41:34;1.92;;;0.90;;
71048;SDS011;58704;53.358;-6.238;2024-02-28T08:43:59;2.20;;;1.00;;
71048;SDS011;58704;53.358;-6.238;2024-02-28T08:46:24;2.57;;;1.00;;
71048;SDS011;58704;53.358;-6.238;2024-02-28T08:48:50;5.33;;;1.47;;
71048;SDS011;58704;53.358;-6.238;2024-02-28T08:51:15;4.53;;;0.97;;
71048;SDS011;58704;53.358;-6.238;2024-02-28T08:53:40;2.73;;;0.97;;
71048;SDS011;58704;53.358;-6.238;2024-02-28T08:56:05;2.30;;;1.20;;
71048;SDS011;58704;53.358;-6.238;2024-02-28T08:58:31;3.17;;;1.00;;
71048;SDS011;58704;53.358;-6.238;2024-02-28T09:00:56;3.40;;;1.20;;
71048;SDS011;58704;53.358;-6.238;2024-02-28T09:03:21;3.20;;;0.90;;
71048;SDS011;58704;53.358;-6.238;2024-02-28T09:05:47;2.70;;;1.10;;
71048;SDS011;58704;53.358;-6.238;2024-02-28T09:08:12;2.67;;;1.43;;
71048;SDS011;58704;53.358;-6.238;2024-02-28T09:10:38;4.23;;;1.70;;
71048;SDS011;58704;53.358;-6.238;2024-02-28T09:13:03;1.93;;;1.07;;
71048;SDS011;58704;53.358;-6.238;2024-02-28T09:15:28;1.70;;;1.30;;
71048;SDS011;58704;53.358;-6.238;2024-02-28T09:17:53;2.20;;;1.50;;
71048;SDS011;58704;53.358;-6.238;2024-02-28T09:20:19;4.00;;;1.60;;
71048;SDS011;58704;53.358;-6.238;2024-02-28T09:22:44;4.00;;;1.90;;
71048;SDS011;58704;53.358;-6.238;2024-02-28T09:25:09;2.70;;;1.60;;
71048;SDS011;58704;53.358;-6.238;2024-02-28T09:27:35;2.90;;;1.33;;
71048;SDS011;58704;53.358;-6.238;2024-02-28T09:30:01;2.08;;;0.93;;
71048;SDS011;58704;53.358;-6.238;2024-02-28T09:32:26;1.20;;;1.05;;
71048;SDS011;58704;53.358;-6.238;2024-02-28T09:34:52;1.23;;;0.90;;
71048;SDS011;58704;53.358;-6.238;2024-02-28T09:37:17;2.05;;;1.10;;
71048;SDS011;58704;53.358;-6.238;2024-02-28T09:39:43;1.10;;;1.00;;
71048;SDS011;58704;53.358;-6.238;2024-02-28T09:42:09;1.67;;;1.07;;
71048;SDS011;58704;53.358;-6.238;2024-02-28T09:44:34;1.60;;;0.70;;
71048;SDS011;58704;53.358;-6.238;2024-02-28T09:47:01;1.63;;;1.00;;
71048;SDS011;58704;53.358;-6.238;2024-02-28T09:49:26;5.27;;;0.93;;
71048;SDS011;58704;53.358;-6.238;2024-02-28T09:51:53;0.87;;;0.70;;
71048;SDS011;58704;53.358;-6.238;2024-02-28T09:54:19;1.30;;;1.08;;
71048;SDS011;58704;53.358;-6.238;2024-02-28T09:56:44;1.83;;;1.30;;
71048;SDS011;58704;53.358;-6.238;2024-02-28T09:59:10;1.37;;;1.03;;
71048;SDS011;58704;53.358;-6.238;2024-02-28T10:01:42;2.45;;;1.10;;
71048;SDS011;58704;53.358;-6.238;2024-02-28T10:04:07;0.85;;;0.80;;
71048;SDS011;58704;53.358;-6.238;2024-02-28T10:06:35;1.00;;;0.83;;
71048;SDS011;58704;53.358;-6.238;2024-02-28T10:09:00;1.83;;;1.20;;
71048;SDS011;58704;53.358;-6.238;2024-02-28T10:11:25;2.77;;;1.20;;
71048;SDS011;58704;53.358;-6.238;2024-02-28T10:13:52;1.13;;;1.00;;
71048;SDS011;58704;53.358;-6.238;2024-02-28T10:16:17;1.30;;;1.03;;
71048;SDS011;58704;53.358;-6.238;2024-02-28T10:18:43;2.50;;;0.80;;
71048;SDS011;58704;53.358;-6.238;2024-02-28T10:21:08;1.17;;;0.80;;
71048;SDS011;58704;53.358;-6.238;2024-02-28T10:23:34;1.73;;;0.93;;
71048;SDS011;58704;53.358;-6.238;2024-02-28T10:26:00;0.80;;;0.70;;
71048;SDS011;58704;53.358;-6.238;2024-02-28T10:28:26;1.40;;;1.30;;
71048;SDS011;58704;53.358;-6.238;2024-02-28T10:30:52;1.05;;;0.90;;
71048;SDS011;58704;53.358;-6.238;2024-02-28T10:33:18;2.38;;;0.90;;
71048;SDS011;58704;53.358;-6.238;2024-02-28T10:35:43;0.97;;;0.80;;
71048;SDS011;58704;53.358;-6.238;2024-02-28T10:38:10;1.35;;;0.90;;
71048;SDS011;58704;53.358;-6.238;2024-02-28T10:40:35;3.33;;;1.20;;
71048;SDS011;58704;53.358;-6.238;2024-02-28T10:43:00;3.20;;;0.83;;
71048;SDS011;58704;53.358;-6.238;2024-02-28T10:45:27;1.02;;;0.75;;
71048;SDS011;58704;53.358;-6.238;2024-02-28T10:47:55;1.02;;;0.85;;
71048;SDS011;58704;53.358;-6.238;2024-02-28T10:50:21;1.73;;;0.80;;
71048;SDS011;58704;53.358;-6.238;2024-02-28T10:52:46;1.13;;;1.03;;
71048;SDS011;58704;53.358;-6.238;2024-02-28T10:55:17;1.40;;;1.00;;
71048;SDS011;58704;53.358;-6.238;2024-02-28T10:57:45;1.08;;;0.90;;
71048;SDS011;58704;53.358;-6.238;2024-02-28T11:00:12;2.10;;;1.03;;
71048;SDS011;58704;53.358;-6.238;2024-02-28T11:02:38;1.27;;;0.93;;
71048;SDS011;58704;53.358;-6.238;2024-02-28T11:05:04;1.58;;;1.08;;
71048;SDS011;58704;53.358;-6.238;2024-02-28T11:07:30;1.30;;;1.20;;
71048;SDS011;58704;53.358;-6.238;2024-02-28T11:09:55;1.98;;;1.00;;
71048;SDS011;58704;53.358;-6.238;2024-02-28T11:12:27;2.10;;;1.03;;
71048;SDS011;58704;53.358;-6.238;2024-02-28T11:14:59;2.13;;;1.20;;
71048;SDS011;58704;53.358;-6.238;2024-02-28T11:17:26;1.20;;;0.90;;
71048;SDS011;58704;53.358;-6.238;2024-02-28T11:19:51;1.37;;;0.90;;
71048;SDS011;58704;53.358;-6.238;2024-02-28T11:22:18;1.05;;;1.00;;
71048;SDS011;58704;53.358;-6.238;2024-02-28T11:24:44;1.33;;;0.98;;
71048;SDS011;58704;53.358;-6.238;2024-02-28T11:27:11;2.40;;;1.10;;
71048;SDS011;58704;53.358;-6.238;2024-02-28T11:29:38;1.58;;;0.90;;
71048;SDS011;58704;53.358;-6.238;2024-02-28T11:32:04;1.67;;;1.15;;
71048;SDS011;58704;53.358;-6.238;2024-02-28T11:34:30;1.53;;;1.30;;
71048;SDS011;58704;53.358;-6.238;2024-02-28T11:36:55;1.90;;;1.00;;
71048;SDS011;58704;53.358;-6.238;2024-02-28T11:39:21;5.60;;;1.57;;
71048;SDS011;58704;53.358;-6.238;2024-02-28T11:41:49;1.35;;;1.00;;
71048;SDS011;58704;53.358;-6.238;2024-02-28T11:44:18;1.57;;;1.10;;
71048;SDS011;58704;53.358;-6.238;2024-02-28T11:46:52;1.30;;;1.02;;
71048;SDS011;58704;53.358;-6.238;2024-02-28T11:49:18;3.73;;;1.30;;
71048;SDS011;58704;53.358;-6.238;2024-02-28T11:51:43;1.15;;;1.02;;
71048;SDS011;58704;53.358;-6.238;2024-02-28T11:54:09;1.20;;;1.10;;
71048;SDS011;58704;53.358;-6.238;2024-02-28T11:56:36;3.22;;;1.02;;
71048;SDS011;58704;53.358;-6.238;2024-02-28T11:59:01;3.70;;;1.10;;
71048;SDS011;58704;53.358;-6.238;2024-02-28T12:01:35;1.10;;;1.00;;
71048;SDS011;58704;53.358;-6.238;2024-02-28T12:04:01;1.08;;;0.90;;
71048;SDS011;58704;53.358;-6.238;2024-02-28T12:06:28;1.20;;;1.00;;
71048;SDS011;58704;53.358;-6.238;2024-02-28T12:08:53;1.88;;;1.40;;
71048;SDS011;58704;53.358;-6.238;2024-02-28T12:11:19;1.17;;;1.00;;
71048;SDS011;58704;53.358;-6.238;2024-02-28T12:13:44;5.53;;;1.40;;
71048;SDS011;58704;53.358;-6.238;2024-02-28T12:16:10;1.90;;;1.10;;
71048;SDS011;58704;53.358;-6.238;2024-02-28T12:18:35;1.20;;;1.00;;
71048;SDS011;58704;53.358;-6.238;2024-02-28T12:21:01;1.80;;;1.70;;
71048;SDS011;58704;53.358;-6.238;2024-02-28T12:23:27;1.87;;;1.37;;
71048;SDS011;58704;53.358;-6.238;2024-02-28T12:25:52;2.50;;;1.27;;
71048;SDS011;58704;53.358;-6.238;2024-02-28T12:28:17;3.08;;;1.65;;
71048;SDS011;58704;53.358;-6.238;2024-02-28T12:30:42;3.00;;;1.60;;
71048;SDS011;58704;53.358;-6.238;2024-02-28T12:33:08;1.70;;;1.50;;
71048;SDS011;58704;53.358;-6.238;2024-02-28T12:35:33;1.93;;;1.43;;
71048;SDS011;58704;53.358;-6.238;2024-02-28T12:37:59;1.30;;;1.20;;
71048;SDS011;58704;53.358;-6.238;2024-02-28T12:40:24;2.13;;;1.30;;
71048;SDS011;58704;53.358;-6.238;2024-02-28T12:42:50;3.05;;;1.08;;
71048;SDS011;58704;53.358;-6.238;2024-02-28T12:45:15;1.57;;;1.40;;
71048;SDS011;58704;53.358;-6.238;2024-02-28T12:47:40;1.80;;;1.20;;
71048;SDS011;58704;53.358;-6.238;2024-02-28T12:50:06;1.73;;;1.20;;
71048;SDS011;58704;53.358;-6.238;2024-02-28T12:52:33;2.20;;;2.00;;
71048;SDS011;58704;53.358;-6.238;2024-02-28T12:54:58;5.00;;;1.50;;
71048;SDS011;58704;53.358;-6.238;2024-02-28T12:57:23;2.17;;;1.40;;
71048;SDS011;58704;53.358;-6.238;2024-02-28T12:59:49;2.93;;;1.60;;
71048;SDS011;58704;53.358;-6.238;2024-02-28T13:02:14;4.50;;;2.27;;
71048;SDS011;58704;53.358;-6.238;2024-02-28T13:04:40;2.90;;;1.50;;
71048;SDS011;58704;53.358;-6.238;2024-02-28T13:07:06;7.87;;;2.33;;
71048;SDS011;58704;53.358;-6.238;2024-02-28T13:09:31;2.83;;;1.30;;
71048;SDS011;58704;53.358;-6.238;2024-02-28T13:11:56;3.95;;;1.50;;
71048;SDS011;58704;53.358;-6.238;2024-02-28T13:14:22;1.33;;;1.20;;
71048;SDS011;58704;53.358;-6.238;2024-02-28T13:16:47;1.50;;;1.40;;
71048;SDS011;58704;53.358;-6.238;2024-02-28T13:19:13;1.98;;;1.67;;
71048;SDS011;58704;53.358;-6.238;2024-02-28T13:21:39;2.33;;;1.50;;
71048;SDS011;58704;53.358;-6.238;2024-02-28T13:24:04;1.33;;;1.20;;
71048;SDS011;58704;53.358;-6.238;2024-02-28T13:26:30;1.90;;;1.67;;
71048;SDS011;58704;53.358;-6.238;2024-02-28T13:28:55;2.27;;;1.53;;
71048;SDS011;58704;53.358;-6.238;2024-02-28T13:31:20;1.53;;;1.37;;
71048;SDS011;58704;53.358;-6.238;2024-02-28T13:33:46;2.83;;;1.40;;
71048;SDS011;58704;53.358;-6.238;2024-02-28T13:36:13;2.17;;;1.60;;
71048;SDS011;58704;53.358;-6.238;2024-02-28T13:38:38;1.80;;;1.70;;
71048;SDS011;58704;53.358;-6.238;2024-02-28T13:41:04;1.85;;;1.30;;
71048;SDS011;58704;53.358;-6.238;2024-02-28T13:43:29;2.90;;;1.50;;
71048;SDS011;58704;53.358;-6.238;2024-02-28T13:45:55;1.73;;;1.50;;
71048;SDS011;58704;53.358;-6.238;2024-02-28T13:48:25;1.80;;;1.50;;
71048;SDS011;58704;53.358;-6.238;2024-02-28T13:50:50;2.70;;;1.70;;
71048;SDS011;58704;53.358;-6.238;2024-02-28T13:53:15;1.90;;;1.60;;
71048;SDS011;58704;53.358;-6.238;2024-02-28T13:55:41;1.73;;;1.52;;
71048;SDS011;58704;53.358;-6.238;2024-02-28T13:58:08;1.90;;;1.53;;
71048;SDS011;58704;53.358;-6.238;2024-02-28T14:00:34;1.90;;;1.38;;
71048;SDS011;58704;53.358;-6.238;2024-02-28T14:03:00;2.60;;;1.20;;
71048;SDS011;58704;53.358;-6.238;2024-02-28T14:05:25;2.97;;;1.67;;
71048;SDS011;58704;53.358;-6.238;2024-02-28T14:07:51;3.00;;;1.63;;
71048;SDS011;58704;53.358;-6.238;2024-02-28T14:10:16;3.67;;;1.33;;
71048;SDS011;58704;53.358;-6.238;2024-02-28T14:12:41;2.87;;;1.30;;
71048;SDS011;58704;53.358;-6.238;2024-02-28T14:15:07;3.47;;;1.70;;
71048;SDS011;58704;53.358;-6.238;2024-02-28T14:17:32;1.80;;;1.58;;
71048;SDS011;58704;53.358;-6.238;2024-02-28T14:19:58;3.60;;;1.40;;